createdAt,value
2023-04-18T00:01:59.055Z,4.82
2023-04-18T00:04:26.908Z,4.97
2023-04-18T00:06:54.488Z,4.30
2023-04-18T00:09:22.074Z,4.10
2023-04-18T00:11:49.579Z,4.82
2023-04-18T00:14:17.412Z,4.53
2023-04-18T00:16:44.955Z,4.18
2023-04-18T00:19:14.336Z,5.47
2023-04-18T00:21:42.031Z,4.63
2023-04-18T00:24:12.502Z,4.47
2023-04-18T00:26:40.558Z,4.40
2023-04-18T00:29:09.013Z,4.77
2023-04-18T00:31:37.384Z,4.97
2023-04-18T00:34:04.861Z,4.80
2023-04-18T00:36:33.789Z,4.43
2023-04-18T00:39:01.391Z,4.10
2023-04-18T00:41:30.520Z,4.28
2023-04-18T00:43:58.411Z,4.10
2023-04-18T00:46:25.964Z,4.38
2023-04-18T00:48:53.540Z,4.88
2023-04-18T00:51:21.319Z,4.50
2023-04-18T00:53:50.737Z,4.82
2023-04-18T00:56:18.420Z,4.47
2023-04-18T00:58:46.089Z,4.88
2023-04-18T01:01:14.251Z,4.63
2023-04-18T01:03:41.911Z,4.68
2023-04-18T01:06:09.784Z,4.38
2023-04-18T01:08:38.301Z,4.72
2023-04-18T01:11:07.345Z,4.53
2023-04-18T01:13:35.281Z,4.40
2023-04-18T01:16:04.664Z,4.43
2023-04-18T01:18:32.215Z,4.63
2023-04-18T01:20:59.969Z,4.70
2023-04-18T01:23:27.464Z,5.32
2023-04-18T01:25:56.533Z,4.93
2023-04-18T01:28:26.290Z,4.60
2023-04-18T01:30:56.368Z,4.72
2023-04-18T01:33:24.330Z,5.15
2023-04-18T01:35:51.756Z,6.18
2023-04-18T01:38:19.232Z,5.68
2023-04-18T01:40:47.415Z,4.75
2023-04-18T01:43:17.204Z,5.47
2023-04-18T01:45:44.675Z,5.20
2023-04-18T01:48:12.207Z,4.55
2023-04-18T01:50:42.934Z,4.82
2023-04-18T01:53:11.324Z,4.93
2023-04-18T01:55:38.852Z,4.72
2023-04-18T01:58:06.961Z,5.32
2023-04-18T02:00:36.021Z,4.82
2023-04-18T02:03:03.730Z,4.60
2023-04-18T02:05:31.275Z,6.20
2023-04-18T02:08:00.095Z,5.03
2023-04-18T02:10:27.688Z,4.78
2023-04-18T02:12:55.134Z,5.15
2023-04-18T02:15:24.520Z,5.45
2023-04-18T02:17:53.573Z,7.93
2023-04-18T02:20:23.943Z,7.07
2023-04-18T02:22:51.395Z,7.53
2023-04-18T02:25:19.043Z,7.25
2023-04-18T02:27:48.141Z,7.10
2023-04-18T02:30:16.017Z,5.60
2023-04-18T02:32:43.507Z,5.63
2023-04-18T02:35:12.487Z,6.28
2023-04-18T02:37:40.470Z,6.47
2023-04-18T02:40:09.568Z,5.40
2023-04-18T02:42:37.336Z,5.95
2023-04-18T02:45:05.803Z,5.07
2023-04-18T02:47:40.524Z,5.60
2023-04-18T02:50:12.998Z,6.20
2023-04-18T02:52:40.839Z,6.15
2023-04-18T02:55:09.904Z,5.87
2023-04-18T02:57:40.787Z,6.50
2023-04-18T03:00:37.487Z,7.20
2023-04-18T03:03:30.178Z,5.70
2023-04-18T03:06:16.136Z,6.90
2023-04-18T03:08:43.740Z,6.43
2023-04-18T03:11:11.269Z,7.03
2023-04-18T03:13:38.891Z,5.18
2023-04-18T03:16:07.198Z,5.53
2023-04-18T03:18:35.075Z,5.65
2023-04-18T03:21:03.180Z,5.45
2023-04-18T03:23:34.226Z,5.85
2023-04-18T03:26:05.543Z,5.43
2023-04-18T03:28:35.150Z,5.68
2023-04-18T03:31:02.962Z,5.40
2023-04-18T03:33:33.042Z,6.30
2023-04-18T03:36:08.539Z,5.30
2023-04-18T03:38:38.663Z,5.65
2023-04-18T03:41:06.876Z,5.93
2023-04-18T03:43:37.069Z,5.88
2023-04-18T03:46:05.492Z,5.68
2023-04-18T03:48:33.704Z,6.28
2023-04-18T03:51:02.744Z,5.47
2023-04-18T03:53:31.920Z,5.63
2023-04-18T03:56:01.504Z,6.15
2023-04-18T03:58:43.438Z,6.85
2023-04-18T04:01:11.110Z,8.55
2023-04-18T04:03:39.171Z,5.97
2023-04-18T04:06:07.070Z,6.15
2023-04-18T04:08:34.695Z,6.00
2023-04-18T04:11:04.691Z,6.50
2023-04-18T04:13:32.178Z,6.00
2023-04-18T04:16:00.240Z,5.57
2023-04-18T04:18:27.917Z,6.22
2023-04-18T04:20:56.272Z,6.07
2023-04-18T04:23:34.262Z,5.18
2023-04-18T04:26:02.407Z,6.00
2023-04-18T04:28:49.927Z,8.07
2023-04-18T04:31:21.375Z,6.75
2023-04-18T04:33:50.386Z,6.47
2023-04-18T04:36:20.362Z,7.88
2023-04-18T04:38:49.789Z,6.43
2023-04-18T04:41:19.050Z,7.50
2023-04-18T04:43:46.610Z,6.70
2023-04-18T04:46:19.930Z,6.53
2023-04-18T04:48:50.148Z,6.28
2023-04-18T04:51:19.331Z,6.10
2023-04-18T04:53:47.114Z,6.10
2023-04-18T04:56:14.958Z,5.72
2023-04-18T04:58:43.037Z,9.60
2023-04-18T05:01:17.239Z,7.55
2023-04-18T05:03:45.331Z,8.18
2023-04-18T05:06:13.116Z,7.10
2023-04-18T05:08:40.592Z,8.35
2023-04-18T05:11:08.085Z,7.55
2023-04-18T05:13:35.569Z,10.02
2023-04-18T05:16:03.265Z,11.07
2023-04-18T05:18:34.930Z,11.80
2023-04-18T05:21:02.845Z,10.00
2023-04-18T05:23:30.527Z,11.32
2023-04-18T05:25:58.141Z,11.43
2023-04-18T05:28:26.467Z,9.77
2023-04-18T05:30:54.015Z,9.52
2023-04-18T05:33:21.706Z,9.95
2023-04-18T05:35:50.770Z,12.10
2023-04-18T05:38:18.245Z,13.35
2023-04-18T05:40:45.803Z,13.70
2023-04-18T05:43:13.454Z,14.32
2023-04-18T05:45:41.243Z,14.07
2023-04-18T05:48:08.768Z,13.27
2023-04-18T05:50:36.237Z,15.75
2023-04-18T05:53:05.359Z,14.43
2023-04-18T05:55:33.021Z,14.73
2023-04-18T05:58:00.568Z,13.98
2023-04-18T06:00:28.143Z,13.65
2023-04-18T06:02:55.883Z,15.90
2023-04-18T06:05:23.948Z,14.30
2023-04-18T06:07:51.744Z,17.08
2023-04-18T06:10:20.798Z,15.98
2023-04-18T06:12:48.251Z,21.35
2023-04-18T06:15:15.719Z,16.80
2023-04-18T06:17:43.945Z,15.73
2023-04-18T06:20:12.492Z,10.52
2023-04-18T06:22:40.013Z,9.27
2023-04-18T06:25:08.119Z,10.70
2023-04-18T06:27:37.089Z,15.25
2023-04-18T06:30:06.649Z,14.93
2023-04-18T06:35:01.888Z,20.48
2023-04-18T06:37:29.646Z,20.35
2023-04-18T06:39:57.128Z,19.05
2023-04-18T06:42:24.738Z,17.63
2023-04-18T06:44:56.294Z,15.10
2023-04-18T06:47:23.893Z,15.43
2023-04-18T06:49:51.552Z,14.05
2023-04-18T06:52:19.118Z,17.02
2023-04-18T06:54:46.818Z,15.02
2023-04-18T06:57:14.409Z,12.45
2023-04-18T06:59:41.874Z,14.05
2023-04-18T07:02:11.631Z,13.43
2023-04-18T07:07:06.841Z,14.05
2023-04-18T07:09:34.409Z,13.52
2023-04-18T07:12:01.929Z,13.52
2023-04-18T07:14:29.492Z,12.98
2023-04-18T07:16:57.024Z,14.90
2023-04-18T07:19:26.017Z,15.27
2023-04-18T07:21:53.512Z,15.05
2023-04-18T07:24:20.963Z,21.13
2023-04-18T07:26:48.530Z,18.15
2023-04-18T07:29:16.059Z,16.60
2023-04-18T07:31:43.642Z,16.55
2023-04-18T07:34:11.301Z,16.05
2023-04-18T07:36:41.200Z,16.00
2023-04-18T07:39:08.783Z,15.77
2023-04-18T07:41:36.396Z,20.13
2023-04-18T07:44:04.780Z,18.50
2023-04-18T07:46:32.814Z,19.55
2023-04-18T07:49:00.562Z,19.58
2023-04-18T07:51:28.503Z,16.98
2023-04-18T07:53:57.534Z,16.20
2023-04-18T07:56:25.200Z,15.40
2023-04-18T07:58:53.375Z,14.13
2023-04-18T08:01:21.104Z,14.18
2023-04-18T08:03:48.738Z,13.18
2023-04-18T08:06:16.946Z,12.00
2023-04-18T08:08:44.704Z,13.30
2023-04-18T08:11:13.896Z,12.25
2023-04-18T08:13:41.378Z,13.15
2023-04-18T08:16:09.393Z,13.00
2023-04-18T08:18:36.928Z,15.05
2023-04-18T08:21:05.046Z,14.30
2023-04-18T08:23:32.703Z,13.57
2023-04-18T08:26:00.308Z,13.00
2023-04-18T08:28:29.356Z,13.38
2023-04-18T08:30:57.010Z,12.60
2023-04-18T08:33:24.743Z,11.85
2023-04-18T08:35:52.324Z,12.02
2023-04-18T08:38:20.119Z,14.68
2023-04-18T08:40:48.135Z,13.57
2023-04-18T08:43:15.769Z,12.57
2023-04-18T08:45:45.363Z,11.73
2023-04-18T08:48:13.437Z,11.27
2023-04-18T08:50:41.478Z,9.55
2023-04-18T08:53:09.507Z,10.65
2023-04-18T08:55:37.371Z,11.57
2023-04-18T08:58:04.966Z,14.25
2023-04-18T09:00:32.872Z,14.75
2023-04-18T09:03:01.956Z,11.63
2023-04-18T09:05:29.587Z,10.20
2023-04-18T09:07:57.117Z,7.88
2023-04-18T09:10:29.398Z,6.70
2023-04-18T09:12:58.016Z,7.72
2023-04-18T09:15:27.508Z,8.88
2023-04-18T09:17:56.582Z,7.25
2023-04-18T09:20:30.845Z,7.38
2023-04-18T09:22:58.394Z,7.47
2023-04-18T09:25:27.906Z,12.80
2023-04-18T09:27:56.082Z,26.08
2023-04-18T09:30:36.843Z,18.30
2023-04-18T09:33:06.603Z,13.45
2023-04-18T09:38:03.688Z,11.95
2023-04-18T09:40:31.542Z,10.50
2023-04-18T09:42:59.165Z,12.85
2023-04-18T09:45:27.461Z,14.35
2023-04-18T09:47:55.697Z,12.82
2023-04-18T09:50:23.462Z,12.68
2023-04-18T09:52:53.480Z,12.43
2023-04-18T09:55:21.511Z,12.10
2023-04-18T09:57:49.190Z,10.38
2023-04-18T10:00:22.444Z,10.27
2023-04-18T10:02:57.499Z,11.10
2023-04-18T10:05:27.046Z,10.70
2023-04-18T10:07:57.128Z,11.02
2023-04-18T10:10:25.399Z,11.20
2023-04-18T10:12:54.870Z,11.25
2023-04-18T10:15:24.893Z,10.90
2023-04-18T10:18:03.513Z,19.23
2023-04-18T10:20:33.981Z,16.02
2023-04-18T10:23:35.146Z,14.20
2023-04-18T10:26:03.432Z,13.90
2023-04-18T10:28:52.346Z,14.10
2023-04-18T10:31:20.938Z,11.77
2023-04-18T10:34:00.747Z,11.35
2023-04-18T10:36:33.007Z,12.07
2023-04-18T10:39:20.245Z,11.43
2023-04-18T10:41:50.958Z,11.63
2023-04-18T10:44:22.123Z,11.40
2023-04-18T10:47:32.064Z,10.48
2023-04-18T10:50:06.031Z,11.00
2023-04-18T10:52:34.242Z,10.45
2023-04-18T10:55:13.690Z,13.23
2023-04-18T10:57:42.679Z,11.23
2023-04-18T11:00:12.872Z,11.57
2023-04-18T11:02:41.554Z,11.55
2023-04-18T11:05:10.172Z,12.35
2023-04-18T11:07:40.427Z,11.52
2023-04-18T11:10:10.888Z,14.32
2023-04-18T11:12:39.957Z,12.77
2023-04-18T11:15:11.817Z,10.48
2023-04-18T11:17:40.346Z,14.18
2023-04-18T11:20:10.133Z,11.43
2023-04-18T11:25:18.634Z,13.13
2023-04-18T11:27:48.420Z,13.65
2023-04-18T11:30:16.245Z,13.23
2023-04-18T11:32:44.386Z,13.23
2023-04-18T11:35:13.041Z,14.25
2023-04-18T11:37:41.394Z,12.57
2023-04-18T11:40:10.328Z,11.68
2023-04-18T11:42:40.929Z,10.75
2023-04-18T11:45:12.554Z,11.38
2023-04-18T11:47:41.412Z,10.02
2023-04-18T11:50:10.343Z,9.70
2023-04-18T11:52:38.135Z,10.25
2023-04-18T11:55:13.885Z,8.82
2023-04-18T11:57:43.409Z,8.65
2023-04-18T12:00:11.929Z,8.73
2023-04-18T12:02:41.763Z,7.82
2023-04-18T12:05:10.340Z,9.05
2023-04-18T12:07:39.110Z,9.32
2023-04-18T12:10:08.487Z,7.88
2023-04-18T12:12:36.681Z,9.02
2023-04-18T12:15:14.210Z,8.68
2023-04-18T12:17:44.012Z,8.05
2023-04-18T12:20:12.809Z,7.28
2023-04-18T12:22:45.217Z,8.63
2023-04-18T12:25:18.039Z,8.18
2023-04-18T12:27:53.744Z,8.45
2023-04-18T12:30:23.668Z,7.82
2023-04-18T12:32:53.428Z,7.80
2023-04-18T12:35:21.507Z,7.30
2023-04-18T12:37:50.310Z,10.93
2023-04-18T12:40:18.426Z,9.50
2023-04-18T12:42:47.209Z,8.38
2023-04-18T12:45:15.789Z,8.10
2023-04-18T12:47:46.070Z,7.55
2023-04-18T12:50:16.787Z,7.22
2023-04-18T12:52:44.516Z,7.55
2023-04-18T12:55:13.433Z,7.50
2023-04-18T12:57:42.078Z,7.05
2023-04-18T13:00:11.279Z,6.85
2023-04-18T13:02:41.142Z,6.85
2023-04-18T13:05:11.812Z,6.45
2023-04-18T13:07:40.234Z,5.93
2023-04-18T13:10:08.966Z,6.55
2023-04-18T13:12:36.574Z,7.27
2023-04-18T13:15:04.330Z,7.38
2023-04-18T13:17:32.319Z,7.53
2023-04-18T13:19:59.994Z,7.90
2023-04-18T13:22:29.075Z,8.27
2023-04-18T13:24:56.655Z,10.65
2023-04-18T13:27:24.326Z,8.35
2023-04-18T13:29:52.060Z,9.05
2023-04-18T13:32:20.286Z,8.35
2023-04-18T13:34:48.443Z,8.73
2023-04-18T13:37:16.040Z,10.07
2023-04-18T13:39:45.097Z,8.80
2023-04-18T13:42:14.070Z,7.80
2023-04-18T13:44:45.139Z,8.50
2023-04-18T13:47:12.662Z,8.57
2023-04-18T13:49:40.371Z,9.18
2023-04-18T13:52:08.027Z,8.57
2023-04-18T13:54:36.704Z,7.97
2023-04-18T13:57:05.931Z,8.27
2023-04-18T13:59:33.551Z,9.75
2023-04-18T14:02:01.166Z,10.85
2023-04-18T14:04:29.072Z,9.27
2023-04-18T14:06:56.928Z,9.73
2023-04-18T14:09:25.011Z,9.32
2023-04-18T14:11:52.904Z,9.48
2023-04-18T14:14:23.355Z,8.73
2023-04-18T14:16:51.172Z,8.98
2023-04-18T14:19:18.802Z,8.77
2023-04-18T14:21:47.351Z,8.10
2023-04-18T14:24:15.096Z,8.32
2023-04-18T14:26:42.718Z,8.18
2023-04-18T14:29:10.492Z,7.88
2023-04-18T14:31:39.466Z,7.40
2023-04-18T14:34:07.008Z,7.50
2023-04-18T14:36:34.976Z,6.88
2023-04-18T14:39:02.505Z,7.35
2023-04-18T14:41:29.985Z,7.40
2023-04-18T14:43:57.486Z,7.90
2023-04-18T14:46:25.239Z,7.78
2023-04-18T14:48:54.880Z,7.57
2023-04-18T14:51:23.162Z,6.43
2023-04-18T14:53:50.731Z,7.40
2023-04-18T14:56:18.843Z,6.65
2023-04-18T14:58:46.357Z,6.22
2023-04-18T15:01:14.008Z,6.43
2023-04-18T15:03:41.906Z,6.72
2023-04-18T15:06:11.964Z,6.80
2023-04-18T15:08:39.713Z,6.07
2023-04-18T15:11:07.875Z,6.05
2023-04-18T15:13:36.217Z,6.40
2023-04-18T15:16:04.272Z,8.70
2023-04-18T15:18:31.794Z,8.25
2023-04-18T15:21:00.430Z,7.75
2023-04-18T15:23:29.634Z,7.57
2023-04-18T15:25:57.224Z,6.78
2023-04-18T15:28:26.006Z,7.05
2023-04-18T15:30:53.478Z,5.95
2023-04-18T15:33:21.195Z,6.07
2023-04-18T15:35:49.450Z,6.20
2023-04-18T15:38:17.280Z,6.70
2023-04-18T15:40:46.462Z,6.60
2023-04-18T15:43:14.295Z,6.45
2023-04-18T15:45:41.870Z,6.63
2023-04-18T15:48:09.494Z,6.82
2023-04-18T15:50:37.053Z,6.80
2023-04-18T15:53:04.738Z,7.35
2023-04-18T15:55:32.325Z,7.00
2023-04-18T15:58:01.380Z,6.60
2023-04-18T16:00:29.891Z,6.80
2023-04-18T16:02:57.578Z,6.40
2023-04-18T16:05:25.412Z,6.25
2023-04-18T16:07:53.107Z,6.13
2023-04-18T16:10:21.057Z,6.20
2023-04-18T16:12:49.078Z,6.32
2023-04-18T16:15:19.474Z,6.15
2023-04-18T16:17:48.097Z,6.30
2023-04-18T16:20:17.402Z,7.15
2023-04-18T16:22:47.525Z,6.50
2023-04-18T16:25:15.692Z,6.25
2023-04-18T16:27:44.829Z,6.00
2023-04-18T16:30:13.661Z,5.53
2023-04-18T16:32:42.682Z,5.90
2023-04-18T16:35:10.944Z,5.75
2023-04-18T16:37:40.085Z,5.50
2023-04-18T16:42:37.003Z,5.32
2023-04-18T16:45:05.995Z,6.07
2023-04-18T16:47:34.553Z,6.15
2023-04-18T16:50:03.623Z,5.82
2023-04-18T16:52:31.132Z,5.88
2023-04-18T16:54:58.870Z,5.88
2023-04-18T16:57:26.700Z,5.50
2023-04-18T16:59:55.241Z,5.90
2023-04-18T17:02:23.435Z,5.38
2023-04-18T17:04:51.072Z,5.22
2023-04-18T17:07:20.181Z,5.20
2023-04-18T17:09:47.639Z,4.82
2023-04-18T17:12:15.163Z,4.88
2023-04-18T17:14:42.649Z,4.57
2023-04-18T17:17:10.178Z,4.43
2023-04-18T17:19:37.853Z,5.07
2023-04-18T17:22:05.325Z,5.30
2023-04-18T17:24:34.343Z,5.20
2023-04-18T17:27:02.338Z,5.00
2023-04-18T17:29:30.298Z,5.05
2023-04-18T17:31:58.045Z,5.00
2023-04-18T17:34:26.310Z,5.10
2023-04-18T17:36:53.883Z,5.00
2023-04-18T17:39:21.887Z,5.22
2023-04-18T17:41:51.557Z,5.68
2023-04-18T17:44:19.159Z,4.70
2023-04-18T17:46:47.720Z,5.13
2023-04-18T17:51:44.573Z,6.13
2023-04-18T17:54:12.596Z,6.82
2023-04-18T17:56:40.721Z,6.60
2023-04-18T17:59:09.730Z,6.10
2023-04-18T18:01:37.820Z,6.30
2023-04-18T18:04:05.598Z,6.05
2023-04-18T18:06:33.333Z,5.70
2023-04-18T18:09:01.026Z,5.85
2023-04-18T18:11:28.516Z,6.03
2023-04-18T18:13:56.525Z,5.47
2023-04-18T18:16:25.548Z,5.53
2023-04-18T18:18:53.284Z,6.85
2023-04-18T18:21:20.840Z,7.15
2023-04-18T18:23:48.379Z,6.72
2023-04-18T18:26:16.036Z,6.40
2023-04-18T18:28:43.664Z,6.90
2023-04-18T18:31:11.254Z,5.93
2023-04-18T18:33:40.333Z,5.63
2023-04-18T18:36:07.975Z,5.57
2023-04-18T18:38:36.105Z,5.13
2023-04-18T18:41:03.956Z,4.78
2023-04-18T18:43:32.305Z,6.05
2023-04-18T18:45:59.925Z,5.88
2023-04-18T18:48:27.879Z,6.70
2023-04-18T18:50:56.855Z,7.30
2023-04-18T18:53:24.778Z,7.38
2023-04-18T18:55:52.368Z,6.28
2023-04-18T18:58:19.896Z,6.05
2023-04-18T19:00:47.514Z,6.10
2023-04-18T19:03:15.091Z,5.75
2023-04-18T19:05:42.579Z,5.88
2023-04-18T19:08:11.622Z,6.45
2023-04-18T19:10:39.351Z,6.80
2023-04-18T19:13:06.828Z,5.97
2023-04-18T19:15:34.545Z,6.28
2023-04-18T19:18:02.173Z,6.25
2023-04-18T19:20:29.674Z,6.63
2023-04-18T19:22:57.199Z,6.20
2023-04-18T19:25:26.251Z,6.85
2023-04-18T19:27:53.801Z,6.28
2023-04-18T19:30:21.372Z,6.20
2023-04-18T19:32:49.116Z,5.70
2023-04-18T19:35:16.690Z,5.43
2023-04-18T19:37:44.153Z,5.20
2023-04-18T19:40:12.326Z,5.20
2023-04-18T19:42:41.389Z,5.93
2023-04-18T19:45:09.793Z,5.68
2023-04-18T19:47:37.313Z,5.78
2023-04-18T19:50:06.009Z,6.47
2023-04-18T19:52:33.523Z,5.07
2023-04-18T19:55:01.046Z,5.60
2023-04-18T19:57:28.589Z,5.22
2023-04-18T19:59:57.682Z,4.97
2023-04-18T20:02:25.216Z,4.28
2023-04-18T20:04:52.944Z,4.88
2023-04-18T20:07:20.669Z,4.68
2023-04-18T20:09:48.113Z,4.82
2023-04-18T20:12:15.549Z,4.97
2023-04-18T20:14:43.018Z,4.60
2023-04-18T20:17:12.361Z,5.15
2023-04-18T20:19:39.906Z,4.22
2023-04-18T20:22:07.469Z,4.40
2023-04-18T20:24:35.454Z,4.60
2023-04-18T20:27:02.898Z,4.60
2023-04-18T20:29:30.401Z,4.70
2023-04-18T20:31:58.331Z,4.53
2023-04-18T20:34:27.205Z,4.78
2023-04-18T20:36:55.203Z,4.53
2023-04-18T20:39:22.789Z,4.38
2023-04-18T20:41:50.478Z,4.70
2023-04-18T20:44:18.756Z,4.53
2023-04-18T20:46:46.266Z,4.55
2023-04-18T20:49:14.033Z,4.43
2023-04-18T20:51:43.149Z,4.70
2023-04-18T20:54:10.726Z,4.60
2023-04-18T20:56:38.316Z,4.72
2023-04-18T20:59:05.916Z,4.57
2023-04-18T21:01:33.797Z,4.80
2023-04-18T21:04:02.761Z,5.00
2023-04-18T21:06:30.926Z,4.70
2023-04-18T21:08:59.993Z,4.25
2023-04-18T21:11:27.484Z,4.95
2023-04-18T21:13:54.900Z,5.00
2023-04-18T21:16:22.920Z,4.18
2023-04-18T21:18:50.871Z,4.38
2023-04-18T21:21:18.766Z,4.97
2023-04-18T21:23:46.360Z,4.45
2023-04-18T21:26:15.584Z,5.32
2023-04-18T21:28:53.291Z,4.95
2023-04-18T21:31:20.812Z,4.60
2023-04-18T21:33:51.458Z,4.75
2023-04-18T21:36:18.866Z,3.97
2023-04-18T21:38:46.336Z,4.28
2023-04-18T21:41:16.634Z,4.30
2023-04-18T21:43:44.326Z,4.47
2023-04-18T21:46:12.075Z,4.60
2023-04-18T21:48:40.215Z,4.63
2023-04-18T21:51:08.390Z,4.53
2023-04-18T21:53:36.064Z,4.57
2023-04-18T21:56:03.538Z,4.93
2023-04-18T21:58:32.449Z,4.72
2023-04-18T22:01:00.255Z,4.82
2023-04-18T22:03:28.616Z,4.75
2023-04-18T22:05:56.623Z,4.38
2023-04-18T22:08:24.274Z,4.70
2023-04-18T22:10:51.904Z,4.50
2023-04-18T22:13:19.407Z,4.38
2023-04-18T22:15:48.394Z,4.80
2023-04-18T22:18:16.188Z,5.10
2023-04-18T22:20:44.175Z,4.88
2023-04-18T22:23:11.648Z,4.07
2023-04-18T22:25:39.133Z,4.20
2023-04-18T22:28:06.669Z,4.28
2023-04-18T22:30:34.801Z,4.97
2023-04-18T22:33:04.074Z,5.78
2023-04-18T22:35:31.525Z,5.22
2023-04-18T22:37:58.954Z,5.65
2023-04-18T22:40:26.379Z,5.13
2023-04-18T22:42:53.871Z,5.47
2023-04-18T22:45:21.293Z,4.97
2023-04-18T22:47:48.997Z,4.38
2023-04-18T22:50:18.186Z,5.43
2023-04-18T22:52:45.627Z,4.95
2023-04-18T22:55:13.067Z,5.90
2023-04-18T22:57:40.896Z,4.75
2023-04-18T23:00:09.443Z,5.25
2023-04-18T23:02:37.222Z,5.38
2023-04-18T23:05:05.610Z,4.93
2023-04-18T23:07:34.773Z,4.80
2023-04-18T23:10:04.025Z,5.80
2023-04-18T23:12:31.495Z,5.60
2023-04-18T23:14:59.515Z,6.30
2023-04-18T23:17:27.177Z,5.35
2023-04-18T23:19:54.918Z,5.47
2023-04-18T23:22:22.388Z,5.15
2023-04-18T23:24:51.337Z,5.72
2023-04-18T23:27:19.698Z,6.20
2023-04-18T23:29:48.028Z,5.22
2023-04-18T23:32:15.478Z,5.05
2023-04-18T23:34:42.933Z,6.25
2023-04-18T23:37:10.405Z,6.18
2023-04-18T23:39:37.818Z,6.82
2023-04-18T23:42:07.461Z,5.25
2023-04-18T23:47:02.303Z,5.22
2023-04-18T23:49:29.838Z,5.15
2023-04-18T23:51:57.343Z,5.55
2023-04-18T23:54:24.808Z,6.60
2023-04-18T23:56:52.556Z,5.50
2023-04-18T23:59:21.801Z,5.93
